North Boulder Creek (79, 238, 626) Station Data

Red Flag Warning: Yes
Fire Weather Zone: 258
SDGE Region: Mountain Empire
Lat/Lon: 32.98/-116.663

Observations

Time Wind Speed/Gust Temp(F) RH Fuel Moist Fuel Temp(F) Dewpt(F) Tmax(F) Tmin(F) Accum Precip 10-min Precip SL Press(mb)
6/27 4:50pm 263 11 G 16 84° 20% - - 39° 89.6° 76.3° - - -
6/27 4:30pm 263 11 G 16 84° 20% - - 40° 89.6° 76.3° - - -
6/27 4:20pm 254 10 G 17 85° 20% - - 39° 89.6° 76.3° - - -
6/27 4:10pm 261 10 G 18 85° 20% - - 40° 89.6° 76.3° - - -
6/27 4:00pm 266 12 G 18 85° 19% - - 38° 89.6° 76.3° - - -
6/27 3:50pm 261 13 G 18 85° 19% - - 39° 89.6° 76.3° - - -
6/27 3:40pm 262 12 G 18 86° 20% - - 40° 89.6° 76.3° - - -
6/27 3:30pm 262 13 G 21 86° 20% - - 40° 89.6° 76.3° - - -
6/27 3:10pm 258 12 G 19 87° 19% - - 40° 89.6° 76.3° - - -
6/27 3:00pm 260 12 G 18 87° 20% - - 41° 89.6° 76.3° - - -
6/27 2:50pm 258 12 G 20 87° 21% - - 42° 89.6° 76.3° - - -
6/27 2:40pm 266 11 G 19 87° 21% - - 43° 89.6° 76.3° - - -
6/27 2:30pm 262 13 G 21 87° 21% - - 42° 89.6° 76.3° - - -
6/27 2:20pm 263 13 G 22 87° 21% - - 42° 89.6° 76.3° - - -
6/27 2:10pm 269 14 G 21 87° 19% - - 40° 89.6° 76.3° - - -
6/27 2:00pm 267 12 G 19 88° 16% - - 36° 89.6° 76.3° - - -
6/27 1:50pm 258 13 G 20 88° 16% - - 35° 89.6° 76.3° - - -
6/27 1:40pm 259 11 G 21 88° 15% - - 35° 89.6° 76.3° - - -
6/27 1:30pm 257 11 G 18 88° 15% - - 35° 89.6° 76.3° - - -
6/27 1:10pm 249 11 G 17 88° 15% - - 35° 89.2° 76.3° - - -
6/27 1:00pm 244 11 G 17 88° 14% - - 33° 89.2° 76.3° - - -
6/27 12:50pm 272 10 G 18 88° 13% - - 31° 89.2° 76.3° - - -
6/27 11:40am 294 8 G 15 86° 12% - - 27° 86.6° 76.3° - - -
6/27 11:30am 276 7 G 15 86° 12% - - 28° 86.6° 76.3° - - -
6/27 11:10am 262 7 G 13 85° 12% - - 26° 86.5° 76.3° - - -
6/27 11:00am 265 8 G 15 86° 12% - - 28° 86.5° 76.3° - - -
6/27 10:40am 255 7 G 14 84° 12% - - 27° 85.1° 76.3° - - -
6/27 10:30am 259 6 G 10 84° 12% - - 27° 84.8° 76.3° - - -
6/27 10:10am 268 4 G 9 84° 13% - - 27° 84.7° 76.3° - - -
6/27 10:00am 217 3 G 8 83° 12% - - 26° 84.1° 76.3° - - -
6/27 9:50am 272 4 G 8 83° 13% - - 27° 84.1° 76.3° - - -
6/27 9:40am 279 5 G 9 83° 13% - - 28° 84.1° 76.3° - - -
6/27 9:20am 295 5 G 9 82° 13% - - 27° 83.7° 76.3° - - -
6/27 9:10am 297 3 G 7 82° 13% - - 26° 83.7° 76.3° - - -
6/27 8:50am 314 3 G 7 82° 12% - - 23° 83.7° 76.3° - - -
6/27 8:40am 295 4 G 8 82° 11% - - 23° 83.7° 76.3° - - -
6/27 8:30am 303 2 G 8 82° 12% - - 25° 83.7° 76.3° - - -
6/27 8:20am 275 1 G 2 82° 11% - - 22° 83.7° 76.3° - - -
6/27 8:10am 323 1 G 2 83° 12% - - 25° 83.7° 76.3° - - -
6/27 8:00am 200 2 G 6 81° 11% - - 22° 82.5° 76.3° - - -
6/27 7:50am 334 1 G 3 81° 12% - - 23° 81.7° 76.3° - - -
6/27 7:40am 356 3 G 6 81° 10% - - 20° 81.3° 76.3° - - -
6/27 7:30am 8 3 G 5 80° 11% - - 21° 81° 76.3° - - -
6/27 7:20am 20 3 G 5 79° 11% - - 20° 80.7° 76.3° - - -
6/27 7:10am 58 4 G 6 79° 13% - - 23° 79.9° 76.3° - - -
6/27 7:00am 67 4 G 7 79° 12% - - 21° 79.9° 76.3° - - -
6/27 6:50am 63 3 G 5 79° 11% - - 21° 79.9° 76.3° - - -
6/27 6:40am 59 4 G 6 79° 11% - - 21° 79.9° 76.3° - - -
6/27 6:30am 72 3 G 5 78° 11% - - 21° 79.9° 76.3° - - -
6/27 6:20am 81 3 G 5 77° 12% - - 20° 79.9° 76.3° - - -
6/27 6:00am 71 4 G 5 77° 12% - - 20° 79.9° 76.3° - - -
6/27 5:50am 65 4 G 5 77° 12% - - 20° 79.9° 76.3° - - -
6/27 5:40am 61 3 G 5 77° 12% - - 20° 79.9° 76.3° - - -
6/27 5:30am 326 2 G 5 78° 12% - - 20° 79.9° 76.3° - - -
6/27 5:20am 46 2 G 4 78° 12% - - 21° 79.9° 76.3° - - -
6/27 5:10am 48 4 G 5 77° 12% - - 22° 79.9° 76.3° - - -
6/27 5:00am 67 3 G 5 78° 12% - - 22° 79.9° 76.3° - - -
6/27 4:50am 63 3 G 4 77° 13% - - 22° 79.9° 76.3° - - -
6/27 4:40am 77 3 G 4 78° 13% - - 22° 79.9° 76.3° - - -
6/27 4:30am 70 1 G 3 77° 13% - - 22° 79.9° 76.3° - - -
6/27 4:20am 68 3 G 5 77° 13% - - 23° 79.9° 76.3° - - -
6/27 4:10am 81 4 G 5 77° 13% - - 23° 79.9° 76.3° - - -
6/27 4:00am 81 3 G 4 78° 13% - - 23° 79.9° 76.3° - - -
6/27 3:50am 71 3 G 5 78° 13% - - 23° 79.9° 76.3° - - -
6/27 3:40am 81 4 G 6 78° 13% - - 23° 79.9° 76.3° - - -
6/27 3:30am 88 3 G 5 78° 13% - - 23° 79.9° 76.3° - - -
6/27 3:20am 86 4 G 6 78° 13% - - 23° 79.9° 76.3° - - -
6/27 3:10am 74 4 G 5 78° 13% - - 23° 79.9° 76.3° - - -
6/27 3:00am 85 4 G 5 78° 13% - - 23° 79.9° 76.3° - - -
6/27 2:50am 68 3 G 5 78° 13% - - 23° 79.9° 76.3° - - -
6/27 2:40am 64 2 G 4 78° 13% - - 23° 79.9° 76.3° - - -
6/27 2:30am 69 2 G 3 78° 13% - - 23° 79.9° 76.3° - - -
6/27 2:20am 84 3 G 4 78° 12% - - 22° 79.9° 76.3° - - -
6/27 2:10am 72 2 G 4 77° 13% - - 22° 79.9° 76.3° - - -
6/27 2:00am 78 2 G 4 78° 12% - - 22° 79.9° 76.3° - - -
6/27 1:50am 80 2 G 4 79° 12% - - 21° 79.9° 76.3° - - -
6/27 1:40am 64 3 G 4 79° 12% - - 21° 79.9° 76.3° - - -
6/27 1:30am 74 4 G 4 79° 11% - - 20° 79.9° 76.3° - - -
6/27 1:20am 73 3 G 4 79° 11% - - 20° 79.9° 76.3° - - -
6/27 1:10am 75 4 G 5 78° 11% - - 19° 79.9° 76.3° - - -
6/27 1:00am 74 4 G 6 77° 11% - - 19° 79.9° 76.3° - - -
6/27 12:50am 73 4 G 6 77° 11% - - 19° 79.9° 76.3° - - -
6/27 12:40am 301 2 G 6 78° 11% - - 19° 79.9° 77.1° - - -
6/27 12:30am 268 6 G 8 79° 10% - - 18° 79.9° 77.8° - - -
6/27 12:20am 273 5 G 7 79° 11% - - 19° 79.9° 78.2° - - -
6/27 12:10am 284 4 G 7 79° 10% - - 19° 79.9° 78.8° - - -
6/27 12:00am 302 3 G 6 80° 10% - - 19° 95° 78.3° - - -
6/26 11:50pm 293 3 G 5 80° 10% - - 19° 95° 78.3° - - -
6/26 11:40pm 307 2 G 3 80° 10% - - 19° 95° 78.3° - - -
6/26 11:30pm 317 2 G 3 81° 10% - - 19° 95° 78.3° - - -
6/26 11:20pm 320 2 G 4 81° 10% - - 20° 95° 78.3° - - -
6/26 11:10pm 14 2 G 4 81° 11% - - 21° 95° 78.3° - - -
6/26 11:00pm 352 1 G 3 81° 11% - - 21° 95° 78.3° - - -
6/26 10:50pm 81 2 G 4 80° 11% - - 21° 95° 78.3° - - -
6/26 10:40pm 68 3 G 4 80° 11% - - 21° 95° 78.3° - - -
6/26 10:30pm 74 4 G 5 80° 11% - - 21° 95° 78.3° - - -
6/26 10:20pm 76 5 G 6 79° 12% - - 21° 95° 78.3° - - -
6/26 10:10pm 77 5 G 5 79° 12% - - 21° 95° 78.3° - - -
6/26 10:00pm 78 4 G 5 80° 12% - - 22° 95° 78.7° - - -
6/26 9:50pm 72 4 G 5 80° 12% - - 22° 95° 78.7° - - -
6/26 9:40pm 73 3 G 4 79° 13% - - 23° 95° 78.7° - - -
6/26 9:30pm 76 4 G 5 79° 13% - - 24° 95° 78.7° - - -
6/26 9:20pm 79 4 G 5 80° 13% - - 24° 95° 79.1° - - -
6/26 9:10pm 85 1 G 3 80° 12% - - 24° 95° 79.1° - - -
6/26 9:00pm 202 2 G 5 80° 13% - - 24° 95° 79.5° - - -
6/26 8:50pm 190 1 G 3 81° 13% - - 26° 95° 80.1° - - -
6/26 8:40pm 240 2 G 4 81° 13% - - 26° 95° 80.6° - - -
6/26 8:30pm 216 2 G 7 81° 13% - - 26° 95° 80.6° - - -
6/26 8:20pm 189 2 G 3 81° 13% - - 26° 95° 80.7° - - -
6/26 8:10pm 207 2 G 4 82° 13% - - 26° 95° 81.3° - - -
6/26 8:00pm 212 3 G 5 82° 13% - - 26° 95° 81.5° - - -
6/26 7:50pm 220 4 G 6 83° 13% - - 26° 95° 82° - - -
6/26 7:40pm 222 4 G 5 84° 12% - - 26° 95° 82.6° - - -
6/26 7:30pm 250 5 G 7 84° 12% - - 26° 95° 82.6° - - -
6/26 7:20pm 273 5 G 9 85° 13% - - 27° 95° 82.6° - - -
6/26 7:10pm 274 6 G 10 85° 12% - - 27° 95° 82.6° - - -
6/26 7:00pm 270 8 G 13 86° 11% - - 26° 95° 82.6° - - -
6/26 6:50pm 271 10 G 15 86° 11% - - 25° 95° 82.6° - - -
6/26 6:40pm 277 11 G 17 87° 11% - - 27° 95° 82.6° - - -
6/26 6:30pm 280 11 G 17 87° 12% - - 29° 95° 82.6° - - -
6/26 6:20pm 285 10 G 16 88° 12% - - 30° 95° 82.6° - - -
6/26 6:10pm 286 10 G 15 89° 13% - - 30° 95° 82.6° - - -
6/26 6:00pm 282 11 G 15 89° 12% - - 29° 95° 82.6° - - -
6/26 5:50pm 279 12 G 17 89° 12% - - 29° 95° 82.6° - - -
6/26 5:40pm 276 10 G 16 90° 11% - - 29° 95° 82.6° - - -
6/26 5:30pm 277 11 G 20 90° 11% - - 29° 95° 82.6° - - -
6/26 5:20pm 278 11 G 17 90° 12% - - 30° 95° 82.6° - - -
6/26 5:10pm 280 11 G 19 91° 12% - - 31° 95° 82.6° - - -
6/26 5:00pm 278 12 G 18 91° 11% - - 29° 95° 82.6° - - -
6/26 4:50pm 283 12 G 19 92° 12% - - 31° 95° 82.6° - - -
6/26 4:40pm 278 12 G 21 91° 11% - - 30° 95° 82.6° - - -
6/26 4:30pm 284 12 G 25 92° 11% - - 30° 95° 82.6° - - -
6/26 4:20pm 283 13 G 21 92° 12% - - 31° 95° 82.6° - - -
6/26 4:10pm 284 13 G 20 92° 12% - - 32° 95° 82.6° - - -
6/26 4:00pm 295 14 G 22 92° 11% - - 31° 95° 82.6° - - -
6/26 3:50pm 277 12 G 20 93° 12% - - 32° 95° 82.6° - - -
6/26 3:40pm 279 13 G 21 93° 11% - - 31° 95° 82.6° - - -
6/26 3:30pm 291 13 G 20 93° 11% - - 31° 95° 82.6° - - -
6/26 3:20pm 278 12 G 20 93° 11% - - 31° 95° 82.6° - - -
6/26 3:10pm 297 12 G 22 93° 11% - - 31° 95° 82.6° - - -
6/26 3:00pm 278 12 G 21 93° 11% - - 31° 95° 82.6° - - -
6/26 2:50pm 292 12 G 20 93° 11% - - 31° 95° 82.6° - - -
6/26 2:40pm 280 12 G 17 93° 11% - - 32° 95° 82.6° - - -
6/26 2:30pm 292 11 G 24 93° 11% - - 31° 95° 82.6° - - -
6/26 2:20pm 287 13 G 23 93° 11% - - 31° 95° 82.6° - - -
6/26 2:10pm 286 13 G 19 93° 11% - - 31° 95° 82.6° - - -
6/26 2:00pm 283 13 G 20 93° 11% - - 30° 95° 82.6° - - -
6/26 1:50pm 285 14 G 21 93° 11% - - 31° 95° 82.6° - - -
6/26 1:40pm 282 13 G 19 94° 11% - - 31° 95° 82.6° - - -
6/26 1:30pm 296 11 G 21 94° 11% - - 31° 95° 82.6° - - -
6/26 1:20pm 284 11 G 18 94° 11% - - 31° 95° 82.6° - - -
6/26 1:10pm 283 13 G 24 94° 11% - - 30° 95° 82.6° - - -
6/26 1:00pm 287 11 G 21 94° 11% - - 31° 94.8° 82.6° - - -
6/26 12:50pm 280 11 G 18 94° 11% - - 31° 94.8° 82.6° - - -
6/26 12:40pm 271 11 G 19 93° 11% - - 31° 94.4° 82.6° - - -
6/26 12:30pm 283 10 G 19 93° 11% - - 32° 94.4° 82.6° - - -
6/26 12:20pm 285 12 G 20 93° 11% - - 31° 94° 82.6° - - -
6/26 12:10pm 281 13 G 21 93° 11% - - 31° 94° 82.6° - - -
6/26 12:00pm 279 12 G 21 93° 12% - - 32° 94° 82.6° - - -
6/26 11:50am 284 12 G 19 93° 11% - - 31° 94° 82.6° - - -
6/26 11:40am 282 9 G 16 93° 12% - - 33° 94° 82.6° - - -
6/26 11:30am 286 10 G 17 93° 12% - - 33° 93.5° 82.6° - - -
6/26 11:20am 275 8 G 20 92° 13% - - 35° 93.2° 82.6° - - -
6/26 11:10am 290 9 G 15 91° 14% - - 35° 92.2° 82.6° - - -
6/26 11:00am 295 8 G 14 91° 15% - - 36° 91.9° 82.6° - - -
6/26 10:50am 298 7 G 12 91° 15% - - 37° 91.9° 82.6° - - -
6/26 10:40am 277 6 G 10 91° 15% - - 38° 91.9° 82.6° - - -
6/26 10:30am 272 7 G 13 90° 16% - - 38° 91.2° 82.6° - - -
6/26 10:20am 280 7 G 12 90° 15% - - 36° 90.9° 82.6° - - -
6/26 10:10am 273 6 G 10 90° 15% - - 37° 90.6° 82.6° - - -
6/26 10:00am 275 6 G 10 90° 16% - - 37° 90.6° 82.6° - - -
6/26 9:50am 268 4 G 8 90° 15% - - 37° 90.6° 82.6° - - -
6/26 9:40am 274 4 G 7 90° 16% - - 37° 90.3° 82.6° - - -
6/26 9:30am 276 4 G 7 90° 16% - - 37° 90.3° 82.6° - - -
6/26 9:20am 287 3 G 5 89° 16% - - 38° 90.3° 82.6° - - -
6/26 9:10am 279 3 G 5 89° 16% - - 38° 90.3° 82.6° - - -
6/26 9:00am 277 3 G 6 89° 16% - - 38° 90.3° 82.6° - - -
6/26 8:50am 302 2 G 3 89° 16% - - 38° 90.3° 82.6° - - -
6/26 8:40am 304 1 G 3 90° 16% - - 38° 90.3° 82.6° - - -
6/26 8:30am 318 2 G 3 89° 15% - - 35° 89.6° 82.6° - - -
6/26 8:20am 338 2 G 4 89° 14% - - 34° 89.6° 82.6° - - -
6/26 8:10am 6 2 G 5 89° 14% - - 33° 89.5° 82.6° - - -
6/26 8:00am 13 2 G 4 88° 16% - - 37° 88.7° 82.6° - - -
6/26 7:50am 29 3 G 4 87° 18% - - 38° 87.9° 82.6° - - -
6/26 7:40am 28 4 G 5 87° 16% - - 35° 87.9° 82.6° - - -
6/26 7:30am 28 5 G 7 87° 15% - - 33° 87.4° 82.6° - - -
6/26 7:20am 31 5 G 7 87° 15% - - 33° 87.1° 82.6° - - -
6/26 7:10am 32 5 G 6 87° 14% - - 32° 87.1° 82.6° - - -
6/26 7:00am 36 5 G 7 86° 15% - - 32° 86.8° 82.6° - - -
6/26 6:50am 44 6 G 7 85° 15% - - 32° 86.8° 82.6° - - -
6/26 6:40am 43 6 G 7 85° 14% - - 31° 86.8° 82.6° - - -
6/26 6:30am 42 6 G 7 85° 14% - - 31° 86.8° 82.6° - - -
6/26 6:20am 27 5 G 8 86° 14% - - 30° 86.8° 82.6° - - -
6/26 6:10am 13 6 G 8 86° 14% - - 31° 86.8° 82.6° - - -
6/26 6:00am 22 6 G 9 85° 15% - - 32° 86.8° 82.6° - - -